sensor_id;sensor_type;location;lat;lon;timestamp;P1;durP1;ratioP1;P2;durP2;ratioP2
7142;SDS011;3613;48.902;9.204;2023-10-08T00:00:26;8.93;;;5.23;;
7142;SDS011;3613;48.902;9.204;2023-10-08T00:03:10;7.80;;;4.83;;
7142;SDS011;3613;48.902;9.204;2023-10-08T00:05:36;7.83;;;4.70;;
7142;SDS011;3613;48.902;9.204;2023-10-08T00:08:03;7.10;;;4.40;;
7142;SDS011;3613;48.902;9.204;2023-10-08T00:10:37;8.67;;;4.27;;
7142;SDS011;3613;48.902;9.204;2023-10-08T00:13:10;8.83;;;4.97;;
7142;SDS011;3613;48.902;9.204;2023-10-08T00:15:41;9.80;;;4.47;;
7142;SDS011;3613;48.902;9.204;2023-10-08T00:18:18;7.47;;;4.47;;
7142;SDS011;3613;48.902;9.204;2023-10-08T00:20:47;7.67;;;4.93;;
7142;SDS011;3613;48.902;9.204;2023-10-08T00:23:34;8.10;;;4.30;;
7142;SDS011;3613;48.902;9.204;2023-10-08T00:26:21;8.30;;;4.73;;
7142;SDS011;3613;48.902;9.204;2023-10-08T00:29:02;8.17;;;5.13;;
7142;SDS011;3613;48.902;9.204;2023-10-08T00:31:43;9.93;;;5.13;;
7142;SDS011;3613;48.902;9.204;2023-10-08T00:34:12;6.80;;;4.40;;
7142;SDS011;3613;48.902;9.204;2023-10-08T00:36:42;7.13;;;4.30;;
7142;SDS011;3613;48.902;9.204;2023-10-08T00:39:12;7.63;;;5.17;;
7142;SDS011;3613;48.902;9.204;2023-10-08T00:41:50;8.30;;;4.90;;
7142;SDS011;3613;48.902;9.204;2023-10-08T00:44:37;8.27;;;4.70;;
7142;SDS011;3613;48.902;9.204;2023-10-08T00:47:12;7.33;;;4.50;;
7142;SDS011;3613;48.902;9.204;2023-10-08T00:49:47;10.17;;;5.50;;
7142;SDS011;3613;48.902;9.204;2023-10-08T00:52:28;6.23;;;4.20;;
7142;SDS011;3613;48.902;9.204;2023-10-08T00:55:13;6.97;;;4.00;;
7142;SDS011;3613;48.902;9.204;2023-10-08T00:57:54;13.77;;;9.40;;
7142;SDS011;3613;48.902;9.204;2023-10-08T01:00:36;8.53;;;5.80;;
7142;SDS011;3613;48.902;9.204;2023-10-08T01:03:08;5.77;;;4.63;;
7142;SDS011;3613;48.902;9.204;2023-10-08T01:05:42;7.43;;;4.10;;
7142;SDS011;3613;48.902;9.204;2023-10-08T01:08:14;9.53;;;4.80;;
7142;SDS011;3613;48.902;9.204;2023-10-08T01:10:47;10.57;;;4.70;;
7142;SDS011;3613;48.902;9.204;2023-10-08T01:13:22;6.17;;;3.90;;
7142;SDS011;3613;48.902;9.204;2023-10-08T01:15:51;6.73;;;4.17;;
7142;SDS011;3613;48.902;9.204;2023-10-08T01:18:17;5.33;;;4.10;;
7142;SDS011;3613;48.902;9.204;2023-10-08T01:20:50;8.03;;;3.87;;
7142;SDS011;3613;48.902;9.204;2023-10-08T01:23:17;7.07;;;4.60;;
7142;SDS011;3613;48.902;9.204;2023-10-08T01:25:46;6.93;;;4.30;;
7142;SDS011;3613;48.902;9.204;2023-10-08T01:28:33;6.17;;;4.17;;
7142;SDS011;3613;48.902;9.204;2023-10-08T01:31:00;7.50;;;4.10;;
7142;SDS011;3613;48.902;9.204;2023-10-08T01:33:29;6.70;;;3.83;;
7142;SDS011;3613;48.902;9.204;2023-10-08T01:35:56;4.30;;;3.43;;
7142;SDS011;3613;48.902;9.204;2023-10-08T01:38:31;7.90;;;3.53;;
7142;SDS011;3613;48.902;9.204;2023-10-08T01:40:58;6.73;;;4.03;;
7142;SDS011;3613;48.902;9.204;2023-10-08T01:43:30;9.33;;;4.00;;
7142;SDS011;3613;48.902;9.204;2023-10-08T01:45:56;9.20;;;4.07;;
7142;SDS011;3613;48.902;9.204;2023-10-08T01:48:21;7.60;;;4.70;;
7142;SDS011;3613;48.902;9.204;2023-10-08T01:50:59;5.93;;;3.60;;
7142;SDS011;3613;48.902;9.204;2023-10-08T01:53:27;6.80;;;4.00;;
7142;SDS011;3613;48.902;9.204;2023-10-08T01:55:53;6.33;;;4.00;;
7142;SDS011;3613;48.902;9.204;2023-10-08T01:58:21;8.27;;;4.70;;
7142;SDS011;3613;48.902;9.204;2023-10-08T02:00:47;7.07;;;4.20;;
7142;SDS011;3613;48.902;9.204;2023-10-08T02:03:14;6.73;;;4.33;;
7142;SDS011;3613;48.902;9.204;2023-10-08T02:05:44;7.90;;;4.10;;
7142;SDS011;3613;48.902;9.204;2023-10-08T02:08:13;8.07;;;4.03;;
7142;SDS011;3613;48.902;9.204;2023-10-08T02:10:42;8.53;;;4.60;;
7142;SDS011;3613;48.902;9.204;2023-10-08T02:13:12;7.40;;;4.27;;
7142;SDS011;3613;48.902;9.204;2023-10-08T02:15:43;8.03;;;4.50;;
7142;SDS011;3613;48.902;9.204;2023-10-08T02:18:10;7.47;;;4.17;;
7142;SDS011;3613;48.902;9.204;2023-10-08T02:20:38;9.83;;;4.23;;
7142;SDS011;3613;48.902;9.204;2023-10-08T02:23:04;8.70;;;4.40;;
7142;SDS011;3613;48.902;9.204;2023-10-08T02:25:30;7.20;;;4.90;;
7142;SDS011;3613;48.902;9.204;2023-10-08T02:27:59;7.83;;;4.20;;
7142;SDS011;3613;48.902;9.204;2023-10-08T02:30:27;8.67;;;4.60;;
7142;SDS011;3613;48.902;9.204;2023-10-08T02:32:56;7.50;;;4.47;;
7142;SDS011;3613;48.902;9.204;2023-10-08T02:35:23;8.07;;;4.40;;
7142;SDS011;3613;48.902;9.204;2023-10-08T02:37:48;6.70;;;4.17;;
7142;SDS011;3613;48.902;9.204;2023-10-08T02:40:14;8.30;;;4.80;;
7142;SDS011;3613;48.902;9.204;2023-10-08T02:42:51;7.37;;;4.10;;
7142;SDS011;3613;48.902;9.204;2023-10-08T02:45:22;8.00;;;4.13;;
7142;SDS011;3613;48.902;9.204;2023-10-08T02:47:52;8.73;;;4.30;;
7142;SDS011;3613;48.902;9.204;2023-10-08T02:50:21;7.03;;;4.37;;
7142;SDS011;3613;48.902;9.204;2023-10-08T02:52:48;6.10;;;3.87;;
7142;SDS011;3613;48.902;9.204;2023-10-08T02:55:15;6.07;;;3.53;;
7142;SDS011;3613;48.902;9.204;2023-10-08T02:57:59;7.80;;;4.67;;
7142;SDS011;3613;48.902;9.204;2023-10-08T03:00:28;6.67;;;4.00;;
7142;SDS011;3613;48.902;9.204;2023-10-08T03:02:57;6.43;;;3.93;;
7142;SDS011;3613;48.902;9.204;2023-10-08T03:05:26;6.23;;;3.83;;
7142;SDS011;3613;48.902;9.204;2023-10-08T03:08:03;5.67;;;3.70;;
7142;SDS011;3613;48.902;9.204;2023-10-08T03:10:36;6.53;;;3.67;;
7142;SDS011;3613;48.902;9.204;2023-10-08T03:13:02;8.93;;;4.43;;
7142;SDS011;3613;48.902;9.204;2023-10-08T03:15:32;6.00;;;3.63;;
7142;SDS011;3613;48.902;9.204;2023-10-08T03:18:17;6.73;;;3.60;;
7142;SDS011;3613;48.902;9.204;2023-10-08T03:20:46;6.83;;;3.70;;
7142;SDS011;3613;48.902;9.204;2023-10-08T03:23:14;6.03;;;3.97;;
7142;SDS011;3613;48.902;9.204;2023-10-08T03:26:02;6.57;;;3.90;;
7142;SDS011;3613;48.902;9.204;2023-10-08T03:28:56;5.80;;;3.30;;
7142;SDS011;3613;48.902;9.204;2023-10-08T03:31:23;7.00;;;3.93;;
7142;SDS011;3613;48.902;9.204;2023-10-08T03:34:10;8.07;;;4.40;;
7142;SDS011;3613;48.902;9.204;2023-10-08T03:36:40;8.83;;;4.57;;
7142;SDS011;3613;48.902;9.204;2023-10-08T03:39:10;6.43;;;3.80;;
7142;SDS011;3613;48.902;9.204;2023-10-08T03:41:39;6.87;;;4.20;;
7142;SDS011;3613;48.902;9.204;2023-10-08T03:44:06;6.67;;;3.80;;
7142;SDS011;3613;48.902;9.204;2023-10-08T03:46:38;8.70;;;4.57;;
7142;SDS011;3613;48.902;9.204;2023-10-08T03:49:15;7.53;;;4.80;;
7142;SDS011;3613;48.902;9.204;2023-10-08T03:51:47;8.57;;;4.27;;
7142;SDS011;3613;48.902;9.204;2023-10-08T03:54:20;6.50;;;4.37;;
7142;SDS011;3613;48.902;9.204;2023-10-08T03:57:00;6.43;;;3.97;;
7142;SDS011;3613;48.902;9.204;2023-10-08T03:59:29;8.40;;;4.33;;
7142;SDS011;3613;48.902;9.204;2023-10-08T04:01:54;7.77;;;4.97;;
7142;SDS011;3613;48.902;9.204;2023-10-08T04:04:32;7.53;;;4.30;;
7142;SDS011;3613;48.902;9.204;2023-10-08T04:09:53;7.60;;;4.60;;
7142;SDS011;3613;48.902;9.204;2023-10-08T04:12:45;8.50;;;4.80;;
7142;SDS011;3613;48.902;9.204;2023-10-08T04:15:16;9.47;;;5.10;;
7142;SDS011;3613;48.902;9.204;2023-10-08T04:17:43;9.90;;;4.93;;
7142;SDS011;3613;48.902;9.204;2023-10-08T04:20:12;8.40;;;4.27;;
7142;SDS011;3613;48.902;9.204;2023-10-08T04:22:57;8.60;;;5.63;;
7142;SDS011;3613;48.902;9.204;2023-10-08T04:25:25;9.33;;;5.13;;
7142;SDS011;3613;48.902;9.204;2023-10-08T04:27:54;8.27;;;5.30;;
7142;SDS011;3613;48.902;9.204;2023-10-08T04:30:26;7.70;;;4.77;;
7142;SDS011;3613;48.902;9.204;2023-10-08T04:33:03;6.30;;;4.17;;
7142;SDS011;3613;48.902;9.204;2023-10-08T04:35:36;8.30;;;5.17;;
7142;SDS011;3613;48.902;9.204;2023-10-08T04:38:13;6.23;;;4.47;;
7142;SDS011;3613;48.902;9.204;2023-10-08T04:40:43;7.30;;;4.50;;
7142;SDS011;3613;48.902;9.204;2023-10-08T04:43:16;7.53;;;4.60;;
7142;SDS011;3613;48.902;9.204;2023-10-08T04:45:56;6.87;;;4.33;;
7142;SDS011;3613;48.902;9.204;2023-10-08T04:48:23;7.60;;;4.37;;
7142;SDS011;3613;48.902;9.204;2023-10-08T04:50:57;6.97;;;4.53;;
7142;SDS011;3613;48.902;9.204;2023-10-08T04:53:31;9.80;;;4.30;;
7142;SDS011;3613;48.902;9.204;2023-10-08T04:56:02;7.03;;;4.03;;
7142;SDS011;3613;48.902;9.204;2023-10-08T04:58:38;8.53;;;4.57;;
7142;SDS011;3613;48.902;9.204;2023-10-08T05:01:14;6.83;;;4.23;;
7142;SDS011;3613;48.902;9.204;2023-10-08T05:04:02;7.67;;;4.50;;
7142;SDS011;3613;48.902;9.204;2023-10-08T05:06:29;7.87;;;4.47;;
7142;SDS011;3613;48.902;9.204;2023-10-08T05:09:05;7.43;;;4.37;;
7142;SDS011;3613;48.902;9.204;2023-10-08T05:11:37;8.57;;;5.00;;
7142;SDS011;3613;48.902;9.204;2023-10-08T05:14:14;7.63;;;4.57;;
7142;SDS011;3613;48.902;9.204;2023-10-08T05:16:59;7.87;;;4.70;;
7142;SDS011;3613;48.902;9.204;2023-10-08T05:19:29;6.70;;;4.57;;
7142;SDS011;3613;48.902;9.204;2023-10-08T05:22:07;10.20;;;5.17;;
7142;SDS011;3613;48.902;9.204;2023-10-08T05:24:52;8.63;;;4.93;;
7142;SDS011;3613;48.902;9.204;2023-10-08T05:27:37;7.57;;;4.40;;
7142;SDS011;3613;48.902;9.204;2023-10-08T05:32:58;9.07;;;4.23;;
7142;SDS011;3613;48.902;9.204;2023-10-08T05:35:44;8.97;;;4.43;;
7142;SDS011;3613;48.902;9.204;2023-10-08T05:38:14;7.63;;;4.07;;
7142;SDS011;3613;48.902;9.204;2023-10-08T05:41:01;8.63;;;4.33;;
7142;SDS011;3613;48.902;9.204;2023-10-08T05:43:34;7.17;;;4.73;;
7142;SDS011;3613;48.902;9.204;2023-10-08T05:49:05;8.40;;;4.77;;
7142;SDS011;3613;48.902;9.204;2023-10-08T05:51:31;8.93;;;4.73;;
7142;SDS011;3613;48.902;9.204;2023-10-08T05:54:16;7.90;;;4.67;;
7142;SDS011;3613;48.902;9.204;2023-10-08T05:56:54;10.37;;;5.03;;
7142;SDS011;3613;48.902;9.204;2023-10-08T05:59:49;8.30;;;4.80;;
7142;SDS011;3613;48.902;9.204;2023-10-08T06:02:24;7.37;;;4.90;;
7142;SDS011;3613;48.902;9.204;2023-10-08T06:05:00;9.40;;;5.30;;
7142;SDS011;3613;48.902;9.204;2023-10-08T06:07:42;8.00;;;4.83;;
7142;SDS011;3613;48.902;9.204;2023-10-08T06:10:27;10.13;;;4.83;;
7142;SDS011;3613;48.902;9.204;2023-10-08T06:13:03;6.97;;;4.40;;
7142;SDS011;3613;48.902;9.204;2023-10-08T06:15:55;7.93;;;4.80;;
7142;SDS011;3613;48.902;9.204;2023-10-08T06:18:23;9.93;;;4.80;;
7142;SDS011;3613;48.902;9.204;2023-10-08T06:21:00;7.97;;;5.23;;
7142;SDS011;3613;48.902;9.204;2023-10-08T06:23:40;8.27;;;5.23;;
7142;SDS011;3613;48.902;9.204;2023-10-08T06:26:07;8.27;;;4.77;;
7142;SDS011;3613;48.902;9.204;2023-10-08T06:28:39;10.13;;;5.27;;
7142;SDS011;3613;48.902;9.204;2023-10-08T06:31:06;9.47;;;5.10;;
7142;SDS011;3613;48.902;9.204;2023-10-08T06:33:36;7.53;;;4.70;;
7142;SDS011;3613;48.902;9.204;2023-10-08T06:36:05;9.00;;;5.03;;
7142;SDS011;3613;48.902;9.204;2023-10-08T06:38:41;9.23;;;4.70;;
7142;SDS011;3613;48.902;9.204;2023-10-08T06:41:16;8.40;;;5.13;;
7142;SDS011;3613;48.902;9.204;2023-10-08T06:43:45;6.63;;;4.03;;
7142;SDS011;3613;48.902;9.204;2023-10-08T06:46:27;7.53;;;4.67;;
7142;SDS011;3613;48.902;9.204;2023-10-08T06:48:54;7.57;;;4.97;;
7142;SDS011;3613;48.902;9.204;2023-10-08T06:51:21;11.10;;;5.37;;
7142;SDS011;3613;48.902;9.204;2023-10-08T06:53:50;9.60;;;5.07;;
7142;SDS011;3613;48.902;9.204;2023-10-08T06:56:16;9.37;;;5.27;;
7142;SDS011;3613;48.902;9.204;2023-10-08T06:58:44;8.47;;;4.13;;
7142;SDS011;3613;48.902;9.204;2023-10-08T07:01:14;8.20;;;4.43;;
7142;SDS011;3613;48.902;9.204;2023-10-08T07:03:49;7.97;;;4.63;;
7142;SDS011;3613;48.902;9.204;2023-10-08T07:06:15;6.40;;;4.87;;
7142;SDS011;3613;48.902;9.204;2023-10-08T07:09:02;8.10;;;4.90;;
7142;SDS011;3613;48.902;9.204;2023-10-08T07:11:31;8.93;;;5.13;;
7142;SDS011;3613;48.902;9.204;2023-10-08T07:14:06;9.30;;;5.00;;
7142;SDS011;3613;48.902;9.204;2023-10-08T07:16:35;11.90;;;5.87;;
7142;SDS011;3613;48.902;9.204;2023-10-08T07:19:01;8.67;;;4.50;;
7142;SDS011;3613;48.902;9.204;2023-10-08T07:21:31;8.93;;;5.10;;
7142;SDS011;3613;48.902;9.204;2023-10-08T07:24:10;8.13;;;5.00;;
7142;SDS011;3613;48.902;9.204;2023-10-08T07:26:40;8.20;;;4.57;;
7142;SDS011;3613;48.902;9.204;2023-10-08T07:29:12;7.90;;;4.70;;
7142;SDS011;3613;48.902;9.204;2023-10-08T07:31:42;8.30;;;4.93;;
7142;SDS011;3613;48.902;9.204;2023-10-08T07:34:13;8.07;;;4.73;;
7142;SDS011;3613;48.902;9.204;2023-10-08T07:36:48;8.63;;;5.40;;
7142;SDS011;3613;48.902;9.204;2023-10-08T07:39:15;7.33;;;5.00;;
7142;SDS011;3613;48.902;9.204;2023-10-08T07:42:11;8.67;;;6.33;;
7142;SDS011;3613;48.902;9.204;2023-10-08T07:44:36;9.47;;;4.73;;
7142;SDS011;3613;48.902;9.204;2023-10-08T07:47:05;8.43;;;4.60;;
7142;SDS011;3613;48.902;9.204;2023-10-08T07:49:40;8.17;;;4.40;;
7142;SDS011;3613;48.902;9.204;2023-10-08T07:52:10;8.83;;;5.03;;
7142;SDS011;3613;48.902;9.204;2023-10-08T07:54:40;7.20;;;4.17;;
7142;SDS011;3613;48.902;9.204;2023-10-08T07:57:06;8.90;;;5.20;;
7142;SDS011;3613;48.902;9.204;2023-10-08T07:59:36;9.50;;;5.80;;
7142;SDS011;3613;48.902;9.204;2023-10-08T08:02:06;8.83;;;4.87;;
7142;SDS011;3613;48.902;9.204;2023-10-08T08:04:41;8.30;;;5.47;;
7142;SDS011;3613;48.902;9.204;2023-10-08T08:07:18;8.13;;;4.13;;
7142;SDS011;3613;48.902;9.204;2023-10-08T08:09:48;8.77;;;4.63;;
7142;SDS011;3613;48.902;9.204;2023-10-08T08:12:24;8.47;;;5.03;;
7142;SDS011;3613;48.902;9.204;2023-10-08T08:14:53;6.97;;;4.40;;
7142;SDS011;3613;48.902;9.204;2023-10-08T08:17:19;7.20;;;4.73;;
7142;SDS011;3613;48.902;9.204;2023-10-08T08:19:47;7.30;;;4.93;;
7142;SDS011;3613;48.902;9.204;2023-10-08T08:22:14;7.40;;;5.00;;
7142;SDS011;3613;48.902;9.204;2023-10-08T08:27:19;7.70;;;4.50;;
7142;SDS011;3613;48.902;9.204;2023-10-08T08:29:56;8.33;;;4.33;;
7142;SDS011;3613;48.902;9.204;2023-10-08T08:32:37;10.90;;;4.60;;
7142;SDS011;3613;48.902;9.204;2023-10-08T08:35:08;8.47;;;4.47;;
7142;SDS011;3613;48.902;9.204;2023-10-08T08:37:35;6.03;;;3.97;;
7142;SDS011;3613;48.902;9.204;2023-10-08T08:40:03;8.50;;;5.00;;
7142;SDS011;3613;48.902;9.204;2023-10-08T08:42:53;7.87;;;4.50;;
7142;SDS011;3613;48.902;9.204;2023-10-08T08:45:21;6.60;;;4.30;;
7142;SDS011;3613;48.902;9.204;2023-10-08T08:47:49;7.20;;;4.17;;
7142;SDS011;3613;48.902;9.204;2023-10-08T08:50:18;7.20;;;4.43;;
7142;SDS011;3613;48.902;9.204;2023-10-08T08:52:46;7.53;;;4.47;;
7142;SDS011;3613;48.902;9.204;2023-10-08T08:55:12;7.17;;;4.17;;
7142;SDS011;3613;48.902;9.204;2023-10-08T08:57:50;8.23;;;4.17;;
7142;SDS011;3613;48.902;9.204;2023-10-08T09:00:19;7.23;;;4.00;;
7142;SDS011;3613;48.902;9.204;2023-10-08T09:02:53;8.80;;;4.20;;
7142;SDS011;3613;48.902;9.204;2023-10-08T09:05:21;6.50;;;3.73;;
7142;SDS011;3613;48.902;9.204;2023-10-08T09:10:21;7.63;;;4.93;;
7142;SDS011;3613;48.902;9.204;2023-10-08T09:12:53;7.03;;;4.23;;
7142;SDS011;3613;48.902;9.204;2023-10-08T09:15:21;5.13;;;3.27;;
7142;SDS011;3613;48.902;9.204;2023-10-08T09:17:48;6.27;;;3.93;;
7142;SDS011;3613;48.902;9.204;2023-10-08T09:20:14;6.73;;;4.03;;
7142;SDS011;3613;48.902;9.204;2023-10-08T09:22:40;4.93;;;3.57;;
7142;SDS011;3613;48.902;9.204;2023-10-08T09:25:08;6.07;;;3.60;;
7142;SDS011;3613;48.902;9.204;2023-10-08T09:27:34;5.13;;;3.67;;
7142;SDS011;3613;48.902;9.204;2023-10-08T09:30:05;6.80;;;3.80;;
7142;SDS011;3613;48.902;9.204;2023-10-08T09:32:43;7.10;;;3.60;;
7142;SDS011;3613;48.902;9.204;2023-10-08T09:35:08;5.67;;;3.50;;
7142;SDS011;3613;48.902;9.204;2023-10-08T09:37:35;7.10;;;3.63;;
7142;SDS011;3613;48.902;9.204;2023-10-08T09:40:03;5.73;;;3.60;;
7142;SDS011;3613;48.902;9.204;2023-10-08T09:42:37;8.23;;;3.57;;
7142;SDS011;3613;48.902;9.204;2023-10-08T09:45:04;6.40;;;3.50;;
7142;SDS011;3613;48.902;9.204;2023-10-08T09:47:33;5.87;;;3.43;;
7142;SDS011;3613;48.902;9.204;2023-10-08T09:50:04;6.70;;;3.90;;
7142;SDS011;3613;48.902;9.204;2023-10-08T09:52:42;5.37;;;3.47;;
7142;SDS011;3613;48.902;9.204;2023-10-08T09:55:21;5.17;;;3.63;;
7142;SDS011;3613;48.902;9.204;2023-10-08T09:57:51;11.17;;;4.03;;
7142;SDS011;3613;48.902;9.204;2023-10-08T10:00:20;6.87;;;3.67;;
7142;SDS011;3613;48.902;9.204;2023-10-08T10:02:57;5.77;;;3.40;;
7142;SDS011;3613;48.902;9.204;2023-10-08T10:05:31;8.77;;;4.13;;
7142;SDS011;3613;48.902;9.204;2023-10-08T10:08:00;5.73;;;3.37;;
7142;SDS011;3613;48.902;9.204;2023-10-08T10:10:30;5.03;;;3.30;;
7142;SDS011;3613;48.902;9.204;2023-10-08T10:12:59;6.53;;;3.23;;
7142;SDS011;3613;48.902;9.204;2023-10-08T10:15:38;5.03;;;3.27;;
7142;SDS011;3613;48.902;9.204;2023-10-08T10:26:21;4.63;;;3.10;;
7142;SDS011;3613;48.902;9.204;2023-10-08T10:31:34;5.17;;;2.97;;
7142;SDS011;3613;48.902;9.204;2023-10-08T10:34:09;7.20;;;3.30;;
7142;SDS011;3613;48.902;9.204;2023-10-08T10:36:38;5.77;;;3.07;;
7142;SDS011;3613;48.902;9.204;2023-10-08T10:39:07;5.83;;;3.20;;
7142;SDS011;3613;48.902;9.204;2023-10-08T10:41:48;5.97;;;3.13;;
7142;SDS011;3613;48.902;9.204;2023-10-08T10:44:16;4.13;;;2.77;;
7142;SDS011;3613;48.902;9.204;2023-10-08T10:46:45;6.20;;;3.37;;
7142;SDS011;3613;48.902;9.204;2023-10-08T10:49:37;6.37;;;3.60;;
7142;SDS011;3613;48.902;9.204;2023-10-08T10:52:13;4.57;;;2.90;;
7142;SDS011;3613;48.902;9.204;2023-10-08T10:54:44;4.77;;;3.13;;
7142;SDS011;3613;48.902;9.204;2023-10-08T10:57:25;4.97;;;2.73;;
7142;SDS011;3613;48.902;9.204;2023-10-08T11:00:05;6.70;;;2.87;;
7142;SDS011;3613;48.902;9.204;2023-10-08T11:02:55;4.87;;;3.50;;
7142;SDS011;3613;48.902;9.204;2023-10-08T11:05:35;4.50;;;2.97;;
7142;SDS011;3613;48.902;9.204;2023-10-08T11:08:07;5.10;;;2.93;;
7142;SDS011;3613;48.902;9.204;2023-10-08T11:10:39;4.37;;;3.20;;
7142;SDS011;3613;48.902;9.204;2023-10-08T11:13:11;5.73;;;3.20;;
7142;SDS011;3613;48.902;9.204;2023-10-08T11:15:43;5.50;;;2.97;;
7142;SDS011;3613;48.902;9.204;2023-10-08T11:18:15;6.13;;;2.80;;
7142;SDS011;3613;48.902;9.204;2023-10-08T11:20:43;5.57;;;3.00;;
7142;SDS011;3613;48.902;9.204;2023-10-08T11:23:31;6.33;;;2.90;;
7142;SDS011;3613;48.902;9.204;2023-10-08T11:25:59;5.17;;;3.33;;
7142;SDS011;3613;48.902;9.204;2023-10-08T11:28:30;7.43;;;3.50;;
7142;SDS011;3613;48.902;9.204;2023-10-08T11:31:07;6.10;;;3.50;;
7142;SDS011;3613;48.902;9.204;2023-10-08T11:33:42;6.67;;;3.70;;
7142;SDS011;3613;48.902;9.204;2023-10-08T11:36:18;6.83;;;3.60;;
7142;SDS011;3613;48.902;9.204;2023-10-08T11:38:53;8.35;;;3.50;;
7142;SDS011;3613;48.902;9.204;2023-10-08T11:41:36;5.15;;;3.00;;
7142;SDS011;3613;48.902;9.204;2023-10-08T11:44:20;6.05;;;3.35;;
7142;SDS011;3613;48.902;9.204;2023-10-08T11:46:51;5.50;;;3.30;;
7142;SDS011;3613;48.902;9.204;2023-10-08T11:49:18;4.80;;;3.25;;
7142;SDS011;3613;48.902;9.204;2023-10-08T11:51:44;5.03;;;2.97;;
7142;SDS011;3613;48.902;9.204;2023-10-08T11:54:13;9.32;;;4.15;;
7142;SDS011;3613;48.902;9.204;2023-10-08T11:56:39;6.53;;;3.38;;
7142;SDS011;3613;48.902;9.204;2023-10-08T11:59:05;7.15;;;3.55;;
7142;SDS011;3613;48.902;9.204;2023-10-08T12:01:37;8.57;;;5.18;;
7142;SDS011;3613;48.902;9.204;2023-10-08T12:04:07;6.32;;;3.58;;
7142;SDS011;3613;48.902;9.204;2023-10-08T12:06:43;7.20;;;3.88;;
7142;SDS011;3613;48.902;9.204;2023-10-08T12:09:17;9.35;;;3.88;;
7142;SDS011;3613;48.902;9.204;2023-10-08T12:11:46;9.25;;;3.72;;
7142;SDS011;3613;48.902;9.204;2023-10-08T12:14:18;7.45;;;3.67;;
7142;SDS011;3613;48.902;9.204;2023-10-08T12:16:44;6.18;;;3.58;;
7142;SDS011;3613;48.902;9.204;2023-10-08T12:19:10;11.80;;;3.97;;
7142;SDS011;3613;48.902;9.204;2023-10-08T12:21:46;6.47;;;4.20;;
7142;SDS011;3613;48.902;9.204;2023-10-08T12:24:12;6.47;;;3.60;;
7142;SDS011;3613;48.902;9.204;2023-10-08T12:26:40;8.00;;;3.20;;
7142;SDS011;3613;48.902;9.204;2023-10-08T12:29:12;6.57;;;3.85;;
7142;SDS011;3613;48.902;9.204;2023-10-08T12:31:49;6.18;;;3.58;;
7142;SDS011;3613;48.902;9.204;2023-10-08T12:34:18;6.72;;;3.53;;
7142;SDS011;3613;48.902;9.204;2023-10-08T12:36:48;8.02;;;3.30;;
7142;SDS011;3613;48.902;9.204;2023-10-08T12:39:15;5.60;;;3.88;;
7142;SDS011;3613;48.902;9.204;2023-10-08T12:41:44;7.88;;;3.53;;
7142;SDS011;3613;48.902;9.204;2023-10-08T12:44:12;7.30;;;3.70;;
7142;SDS011;3613;48.902;9.204;2023-10-08T12:46:42;6.15;;;3.53;;
7142;SDS011;3613;48.902;9.204;2023-10-08T12:49:09;6.05;;;3.58;;
7142;SDS011;3613;48.902;9.204;2023-10-08T12:51:34;6.25;;;3.30;;
7142;SDS011;3613;48.902;9.204;2023-10-08T12:54:06;7.80;;;3.55;;
7142;SDS011;3613;48.902;9.204;2023-10-08T12:56:36;6.22;;;3.55;;
7142;SDS011;3613;48.902;9.204;2023-10-08T12:59:12;7.82;;;3.58;;
7142;SDS011;3613;48.902;9.204;2023-10-08T13:01:48;5.35;;;3.90;;
7142;SDS011;3613;48.902;9.204;2023-10-08T13:04:20;7.00;;;3.22;;
7142;SDS011;3613;48.902;9.204;2023-10-08T13:07:00;6.47;;;3.55;;
7142;SDS011;3613;48.902;9.204;2023-10-08T13:09:27;8.02;;;3.45;;
7142;SDS011;3613;48.902;9.204;2023-10-08T13:11:56;8.25;;;3.78;;
7142;SDS011;3613;48.902;9.204;2023-10-08T13:14:24;7.50;;;3.60;;
7142;SDS011;3613;48.902;9.204;2023-10-08T13:16:50;6.38;;;3.03;;
7142;SDS011;3613;48.902;9.204;2023-10-08T13:19:18;6.43;;;4.00;;
7142;SDS011;3613;48.902;9.204;2023-10-08T13:21:45;6.15;;;3.63;;
7142;SDS011;3613;48.902;9.204;2023-10-08T13:24:12;7.78;;;3.33;;
7142;SDS011;3613;48.902;9.204;2023-10-08T13:26:43;7.07;;;3.85;;
7142;SDS011;3613;48.902;9.204;2023-10-08T13:29:12;7.30;;;3.78;;
7142;SDS011;3613;48.902;9.204;2023-10-08T13:31:39;9.75;;;3.38;;
7142;SDS011;3613;48.902;9.204;2023-10-08T13:34:04;5.97;;;3.33;;
7142;SDS011;3613;48.902;9.204;2023-10-08T13:36:34;5.67;;;3.23;;
7142;SDS011;3613;48.902;9.204;2023-10-08T13:39:04;8.47;;;3.67;;
7142;SDS011;3613;48.902;9.204;2023-10-08T13:41:36;5.60;;;3.27;;
7142;SDS011;3613;48.902;9.204;2023-10-08T13:44:06;7.70;;;3.70;;
7142;SDS011;3613;48.902;9.204;2023-10-08T13:46:34;6.33;;;3.50;;
7142;SDS011;3613;48.902;9.204;2023-10-08T13:49:01;7.77;;;3.63;;
7142;SDS011;3613;48.902;9.204;2023-10-08T13:51:29;4.87;;;3.10;;
7142;SDS011;3613;48.902;9.204;2023-10-08T13:53:57;5.63;;;3.60;;
7142;SDS011;3613;48.902;9.204;2023-10-08T13:56:26;6.27;;;3.37;;
7142;SDS011;3613;48.902;9.204;2023-10-08T13:58:55;7.20;;;3.70;;
7142;SDS011;3613;48.902;9.204;2023-10-08T14:01:37;6.10;;;3.73;;
7142;SDS011;3613;48.902;9.204;2023-10-08T14:04:05;6.00;;;3.20;;
7142;SDS011;3613;48.902;9.204;2023-10-08T14:06:31;5.50;;;3.40;;
7142;SDS011;3613;48.902;9.204;2023-10-08T14:09:02;7.33;;;3.67;;
7142;SDS011;3613;48.902;9.204;2023-10-08T14:11:37;7.87;;;3.80;;
7142;SDS011;3613;48.902;9.204;2023-10-08T14:14:03;4.50;;;2.87;;
7142;SDS011;3613;48.902;9.204;2023-10-08T14:16:36;7.60;;;3.83;;
7142;SDS011;3613;48.902;9.204;2023-10-08T14:19:10;7.27;;;3.63;;
7142;SDS011;3613;48.902;9.204;2023-10-08T14:21:38;7.80;;;3.57;;
7142;SDS011;3613;48.902;9.204;2023-10-08T14:24:15;6.63;;;3.90;;
7142;SDS011;3613;48.902;9.204;2023-10-08T14:26:41;6.53;;;3.70;;
7142;SDS011;3613;48.902;9.204;2023-10-08T14:29:08;6.60;;;3.43;;
7142;SDS011;3613;48.902;9.204;2023-10-08T14:31:42;6.90;;;3.30;;
7142;SDS011;3613;48.902;9.204;2023-10-08T14:34:14;8.70;;;4.07;;
7142;SDS011;3613;48.902;9.204;2023-10-08T14:36:49;5.90;;;3.47;;
7142;SDS011;3613;48.902;9.204;2023-10-08T14:39:33;5.03;;;3.30;;
7142;SDS011;3613;48.902;9.204;2023-10-08T14:42:18;5.33;;;3.23;;
7142;SDS011;3613;48.902;9.204;2023-10-08T14:45:05;7.20;;;4.17;;
7142;SDS011;3613;48.902;9.204;2023-10-08T14:47:36;6.53;;;3.47;;
7142;SDS011;3613;48.902;9.204;2023-10-08T14:50:02;7.00;;;3.10;;
7142;SDS011;3613;48.902;9.204;2023-10-08T14:52:30;5.10;;;3.13;;
7142;SDS011;3613;48.902;9.204;2023-10-08T14:54:58;6.27;;;3.40;;
7142;SDS011;3613;48.902;9.204;2023-10-08T14:57:24;7.23;;;3.67;;
7142;SDS011;3613;48.902;9.204;2023-10-08T14:59:51;9.73;;;3.90;;
7142;SDS011;3613;48.902;9.204;2023-10-08T15:02:17;6.97;;;3.23;;
7142;SDS011;3613;48.902;9.204;2023-10-08T15:04:43;6.10;;;3.40;;
7142;SDS011;3613;48.902;9.204;2023-10-08T15:07:09;6.43;;;3.57;;
7142;SDS011;3613;48.902;9.204;2023-10-08T15:09:45;10.23;;;4.37;;
7142;SDS011;3613;48.902;9.204;2023-10-08T15:12:10;7.93;;;3.60;;
7142;SDS011;3613;48.902;9.204;2023-10-08T15:14:38;5.33;;;3.43;;
7142;SDS011;3613;48.902;9.204;2023-10-08T15:17:07;6.27;;;3.63;;
7142;SDS011;3613;48.902;9.204;2023-10-08T15:19:38;8.47;;;3.83;;
7142;SDS011;3613;48.902;9.204;2023-10-08T15:22:05;8.33;;;3.63;;
7142;SDS011;3613;48.902;9.204;2023-10-08T15:24:31;6.57;;;3.50;;
7142;SDS011;3613;48.902;9.204;2023-10-08T15:26:58;9.30;;;3.67;;
7142;SDS011;3613;48.902;9.204;2023-10-08T15:29:26;6.40;;;3.17;;
7142;SDS011;3613;48.902;9.204;2023-10-08T15:31:55;8.17;;;3.47;;
7142;SDS011;3613;48.902;9.204;2023-10-08T15:34:30;6.97;;;3.20;;
7142;SDS011;3613;48.902;9.204;2023-10-08T15:37:01;6.67;;;3.43;;
7142;SDS011;3613;48.902;9.204;2023-10-08T15:39:26;8.10;;;3.37;;
7142;SDS011;3613;48.902;9.204;2023-10-08T15:41:54;6.00;;;3.67;;
7142;SDS011;3613;48.902;9.204;2023-10-08T15:44:20;7.00;;;4.70;;
7142;SDS011;3613;48.902;9.204;2023-10-08T15:46:46;6.70;;;4.07;;
7142;SDS011;3613;48.902;9.204;2023-10-08T15:49:15;11.63;;;4.93;;
7142;SDS011;3613;48.902;9.204;2023-10-08T15:51:44;7.17;;;3.80;;
7142;SDS011;3613;48.902;9.204;2023-10-08T15:54:12;9.80;;;4.23;;
7142;SDS011;3613;48.902;9.204;2023-10-08T15:56:38;6.30;;;3.70;;
7142;SDS011;3613;48.902;9.204;2023-10-08T15:59:03;11.27;;;4.20;;
7142;SDS011;3613;48.902;9.204;2023-10-08T16:01:29;11.63;;;5.07;;
7142;SDS011;3613;48.902;9.204;2023-10-08T16:03:55;8.83;;;4.20;;
7142;SDS011;3613;48.902;9.204;2023-10-08T16:06:23;8.07;;;5.33;;
7142;SDS011;3613;48.902;9.204;2023-10-08T16:08:48;8.33;;;3.53;;